METAR Data
IDs: Format: Raw Decoded Include TAF

Data at: 1321 UTC 10 Aug 2022

KJZI 101315Z AUTO 29006KT 10SM CLR 29/23 A3021 RMK AO2
KJZI 101255Z AUTO 29004KT 10SM CLR 29/22 A3021 RMK AO2
KJZI 101235Z AUTO 28004KT 10SM CLR 28/23 A3021 RMK AO2
KJZI 101215Z AUTO 27003KT 10SM CLR 26/23 A3020 RMK AO2
KJZI 101155Z AUTO 28003KT 10SM CLR 26/23 A3020 RMK AO2
KJZI 101135Z AUTO 29003KT 10SM CLR 26/24 A3020 RMK AO2
KJZI 101115Z AUTO 00000KT 9SM FEW026 24/24 A3019 RMK AO2
KJZI 101055Z AUTO 00000KT 10SM SCT023 BKN029 BKN038 24/24 A3019 RMK AO2
KJZI 101035Z AUTO 00000KT 10SM BKN025 BKN031 OVC038 24/24 A3018 RMK AO2
KJZI 101015Z AUTO 00000KT 10SM BKN025 24/24 A3017 RMK AO2
KJZI 100955Z AUTO 00000KT 10SM SCT024 24/24 A3017 RMK AO2
KJZI 100935Z AUTO 00000KT 10SM BKN025 25/24 A3017 RMK AO2
KJZI 100915Z AUTO 00000KT 10SM SCT026 SCT034 25/24 A3017 RMK AO2
KJZI 100855Z AUTO 00000KT 10SM FEW027 SCT034 25/25 A3017 RMK AO2
KJZI 100835Z AUTO 00000KT 10SM FEW023 BKN033 BKN055 25/25 A3017 RMK AO2
KJZI 100815Z AUTO 00000KT 10SM FEW022 SCT027 BKN032 26/25 A3017 RMK AO2
KJZI 100755Z AUTO 00000KT 10SM FEW022 SCT029 BKN038 26/25 A3017 RMK AO2
KJZI 100735Z AUTO 26004KT 10SM VCTS CLR 26/25 A3016 RMK AO2 LTG DSNT NE AND E
KJZI 100715Z AUTO 26004KT 10SM FEW032 FEW039 26/25 A3016 RMK AO2
KJZI 100655Z AUTO 27003KT 10SM BKN030 BKN036 27/25 A3016 RMK AO2
KJZI 100635Z AUTO 22004KT 10SM FEW030 SCT036 26/25 A3016 RMK AO2
KJZI 100615Z AUTO 23004KT 10SM CLR 26/25 A3016 RMK AO2
KJZI 100555Z AUTO 00000KT 10SM CLR 27/25 A3016 RMK AO2
KJZI 100535Z AUTO 00000KT 10SM CLR 27/25 A3016 RMK AO2
KJZI 100515Z AUTO 22003KT 10SM SCT023 SCT030 SCT036 27/25 A3016 RMK AO2
KJZI 100455Z AUTO 23004KT 10SM FEW022 27/25 A3017 RMK AO2
KJZI 100435Z AUTO 23003KT 10SM CLR 27/25 A3016 RMK AO2
KJZI 100415Z AUTO 23004KT 10SM CLR 27/25 A3016 RMK AO2
KJZI 100355Z AUTO 24004KT 10SM CLR 27/24 A3016 RMK AO2
KJZI 100335Z AUTO 22006KT 10SM CLR 27/24 A3015 RMK AO2
KJZI 100315Z AUTO 22006KT 10SM CLR 27/24 A3015 RMK AO2
KJZI 100255Z AUTO 21005KT 10SM CLR 27/24 A3015 RMK AO2
KJZI 100235Z AUTO 22005KT 10SM CLR 28/24 A3015 RMK AO2
KJZI 100215Z AUTO 22005KT 10SM CLR 28/24 A3015 RMK AO2
KJZI 100155Z AUTO 21006KT 10SM CLR 28/24 A3014 RMK AO2
KJZI 100135Z AUTO 21007KT 10SM CLR 28/25 A3013 RMK AO2
KJZI 100115Z AUTO 20006KT 10SM CLR 28/24 A3013 RMK AO2
KJZI 100055Z AUTO 21006KT 10SM CLR 28/25 A3013 RMK AO2
KJZI 100035Z AUTO 21006KT 10SM CLR 28/25 A3012 RMK AO2
KJZI 100015Z AUTO 21006KT 10SM CLR 28/25 A3011 RMK AO2
KJZI 092355Z AUTO 21008KT 10SM CLR 29/24 A3011 RMK AO2
KJZI 092335Z AUTO 19008G13KT 10SM CLR 29/24 A3011 RMK AO2
KJZI 092315Z AUTO 19011KT 10SM CLR 29/24 A3010 RMK AO2
KJZI 092255Z AUTO 20009KT 10SM CLR 30/24 A3011 RMK AO2
KJZI 092235Z AUTO 18011KT 10SM CLR 30/24 A3010 RMK AO2
KJZI 092215Z AUTO 18011KT 10SM CLR 30/24 A3011 RMK AO2
KJZI 092155Z AUTO 19010KT 10SM CLR 30/24 A3011 RMK AO2 LTG DSNT SW
KJZI 092135Z AUTO 19009KT 10SM CLR 31/24 A3011 RMK AO2
KJZI 092115Z AUTO 18011KT 10SM CLR 31/24 A3011 RMK AO2
KJZI 092055Z AUTO 18010KT 10SM CLR 31/24 A3011 RMK AO2
KJZI 092035Z AUTO 17011KT 10SM CLR 31/24 A3010 RMK AO2
KJZI 092015Z AUTO 18010KT 10SM CLR 31/24 A3011 RMK AO2
KJZI 091955Z AUTO 18010KT 10SM CLR 31/23 A3011 RMK AO2
KJZI 091935Z AUTO 20010KT 10SM CLR 32/22 A3013 RMK AO2
KJZI 091915Z AUTO 18009G15KT 10SM CLR 32/23 A3014 RMK AO2
KJZI 091855Z AUTO 21008G14KT 10SM CLR 32/24 A3014 RMK AO2
KJZI 091835Z AUTO 19009KT 10SM CLR 32/23 A3015 RMK AO2
KJZI 091815Z AUTO 19009KT 10SM CLR 32/24 A3015 RMK AO2
KJZI 091755Z AUTO 19010KT 10SM CLR 32/24 A3015 RMK AO2
KJZI 091735Z AUTO 21009KT 10SM CLR 32/24 A3016 RMK AO2
KJZI 091715Z AUTO 20010KT 10SM CLR 31/24 A3016 RMK AO2
KJZI 091655Z AUTO 20010KT 10SM CLR 31/24 A3017 RMK AO2
KJZI 091635Z AUTO 19010KT 10SM CLR 31/24 A3017 RMK AO2
KJZI 091615Z AUTO 19010KT 10SM FEW033 FEW039 31/24 A3017 RMK AO2
KJZI 091555Z AUTO 18008KT 10SM FEW029 SCT034 SCT045 31/24 A3017 RMK AO2
KJZI 091535Z AUTO VRB05KT 10SM FEW050 30/24 A3017 RMK AO2
KJZI 091515Z AUTO 23006KT 10SM CLR 31/24 A3017 RMK AO2
KJZI 091455Z AUTO 22005KT 10SM FEW024 30/24 A3017 RMK AO2
KJZI 091435Z AUTO 25007KT 10SM BKN023 BKN030 30/24 A3018 RMK AO2
KJZI 091415Z AUTO 22006KT 10SM SCT021 BKN025 30/25 A3018 RMK AO2
KJZI 091355Z AUTO 26006KT 10SM FEW020 30/25 A3017 RMK AO2
KJZI 091335Z AUTO VRB05KT 10SM CLR 29/25 A3017 RMK AO2